Terminal Aerodrome Forecast
Issued by NWS

Home | Current Version | Previous Version | Text Only | Print | Product List | Glossary On
Versions: 1 2 3 4 5 6 7 8 9 10 11
825
FTUS46 KMFR 231148
TAFLMT
TAF
KLMT 231148Z 2312/2412 VRB03KT P6SM SCT025 BKN050 BKN100
     FM232100 27012G20KT P6SM BKN050 BKN070
     FM240300 25007KT P6SM FEW030 BKN100 OVC200
     FM240600 24009KT 5SM RA BR FEW009 BKN015 OVC025=

USA.gov is the U.S. government's official web portal to all federal, state and local government web resources and services.